createdAt,value
2023-05-19T00:02:20.823Z,97256.69
2023-05-19T00:04:49.521Z,97256.69
2023-05-19T00:07:20.335Z,97263.22
2023-05-19T00:09:47.494Z,97264.06
2023-05-19T00:12:15.046Z,97265.09
2023-05-19T00:14:42.362Z,97264.25
2023-05-19T00:17:09.670Z,97263.22
2023-05-19T00:19:38.014Z,97258.03
2023-05-19T00:22:05.388Z,97258.84
2023-05-19T00:24:33.110Z,97260.84
2023-05-19T00:27:00.040Z,97262.72
2023-05-19T00:29:27.177Z,97256.78
2023-05-19T00:31:54.153Z,97261.50
2023-05-19T00:34:21.183Z,97259.13
2023-05-19T00:36:48.070Z,97253.09
2023-05-19T00:39:15.378Z,97252.38
2023-05-19T00:41:42.586Z,97251.72
2023-05-19T00:44:10.549Z,97245.97
2023-05-19T00:46:38.000Z,97248.00
2023-05-19T00:49:04.902Z,97242.75
2023-05-19T00:51:32.061Z,97247.31
2023-05-19T00:53:59.081Z,97244.78
2023-05-19T00:56:26.461Z,97242.25
2023-05-19T00:58:54.318Z,97236.00
2023-05-19T01:01:22.343Z,97232.66
2023-05-19T01:03:50.187Z,97232.81
2023-05-19T01:06:21.140Z,97243.75
2023-05-19T01:08:48.959Z,97240.53
2023-05-19T01:11:15.852Z,97236.16
2023-05-19T01:13:43.329Z,97241.53
2023-05-19T01:16:32.989Z,97245.91
2023-05-19T01:19:39.396Z,97250.78
2023-05-19T01:22:44.373Z,97250.28
2023-05-19T01:25:57.614Z,97246.22
2023-05-19T01:28:59.932Z,97246.34
2023-05-19T01:31:27.131Z,97241.34
2023-05-19T01:33:55.280Z,97244.03
2023-05-19T01:36:25.730Z,97243.16
2023-05-19T01:39:00.309Z,97233.28
2023-05-19T01:41:28.498Z,97246.56
2023-05-19T01:43:57.060Z,97244.88
2023-05-19T01:46:24.969Z,97234.13
2023-05-19T01:48:53.360Z,97239.31
2023-05-19T01:51:20.247Z,97242.84
2023-05-19T01:53:47.164Z,97247.22
2023-05-19T01:56:22.130Z,97245.88
2023-05-19T01:58:58.952Z,97245.19
2023-05-19T02:01:56.091Z,97237.75
2023-05-19T02:04:50.364Z,97248.69
2023-05-19T02:07:30.160Z,97247.34
2023-05-19T02:10:18.012Z,97240.59
2023-05-19T02:12:46.080Z,97243.97
2023-05-19T02:15:18.408Z,97241.91
2023-05-19T02:17:48.178Z,97245.78
2023-05-19T02:20:18.760Z,97249.97
2023-05-19T02:22:45.984Z,97252.81
2023-05-19T02:25:13.605Z,97256.13
2023-05-19T02:27:41.971Z,97255.78
2023-05-19T02:30:10.261Z,97258.78
2023-05-19T02:32:37.284Z,97250.22
2023-05-19T02:35:04.793Z,97257.75
2023-05-19T02:37:32.510Z,97249.16
2023-05-19T02:39:59.407Z,97239.00
2023-05-19T02:42:26.326Z,97242.00
2023-05-19T02:44:55.318Z,97239.63
2023-05-19T02:47:22.765Z,97239.78
2023-05-19T02:49:52.697Z,97239.28
2023-05-19T02:52:19.604Z,97227.66
2023-05-19T02:54:46.735Z,97236.59
2023-05-19T02:57:13.611Z,97231.22
2023-05-19T02:59:41.018Z,97231.34
2023-05-19T03:02:07.962Z,97237.72
2023-05-19T03:04:41.465Z,97243.97
2023-05-19T03:07:10.163Z,97233.19
2023-05-19T03:09:40.640Z,97230.81
2023-05-19T03:12:07.950Z,97228.81
2023-05-19T03:14:37.348Z,97226.31
2023-05-19T03:17:07.789Z,97229.13
2023-05-19T03:19:34.879Z,97223.63
2023-05-19T03:22:01.819Z,97229.84
2023-05-19T03:24:29.309Z,97230.50
2023-05-19T03:26:56.351Z,97226.81
2023-05-19T03:29:23.493Z,97219.56
2023-05-19T03:31:52.161Z,97224.81
2023-05-19T03:34:19.205Z,97221.97
2023-05-19T03:36:46.354Z,97219.28
2023-05-19T03:39:16.824Z,97226.19
2023-05-19T03:41:45.726Z,97224.34
2023-05-19T03:44:12.723Z,97222.66
2023-05-19T03:46:39.668Z,97233.06
2023-05-19T03:49:25.143Z,97227.69
2023-05-19T03:51:58.162Z,97232.09
2023-05-19T03:54:46.143Z,97231.25
2023-05-19T03:57:14.136Z,97238.47
2023-05-19T03:59:41.406Z,97237.47
2023-05-19T04:02:08.543Z,97240.03
2023-05-19T04:04:37.211Z,97246.94
2023-05-19T04:07:04.674Z,97240.56
2023-05-19T04:09:35.021Z,97241.41
2023-05-19T04:12:05.244Z,97242.25
2023-05-19T04:14:32.209Z,97247.63
2023-05-19T04:16:59.799Z,97240.38
2023-05-19T04:19:27.515Z,97237.56
2023-05-19T04:21:55.682Z,97229.47
2023-05-19T04:24:22.597Z,97230.31
2023-05-19T04:26:50.091Z,97229.31
2023-05-19T04:29:18.944Z,97226.44
2023-05-19T04:31:46.573Z,97232.53
2023-05-19T04:34:13.618Z,97240.28
2023-05-19T04:36:41.625Z,97241.66
2023-05-19T04:39:09.954Z,97239.63
2023-05-19T04:41:40.359Z,97239.47
2023-05-19T04:44:11.032Z,97239.16
2023-05-19T04:46:38.214Z,97240.00
2023-05-19T04:49:06.046Z,97240.53
2023-05-19T04:51:33.197Z,97237.69
2023-05-19T04:54:01.577Z,97243.72
2023-05-19T04:56:28.889Z,97250.66
2023-05-19T04:58:56.476Z,97249.66
2023-05-19T05:01:26.012Z,97254.00
2023-05-19T05:03:55.648Z,97252.88
2023-05-19T05:06:22.781Z,97249.84
2023-05-19T05:08:50.852Z,97251.22
2023-05-19T05:11:18.713Z,97246.50
2023-05-19T05:13:46.750Z,97255.28
2023-05-19T05:16:14.955Z,97239.78
2023-05-19T05:18:44.392Z,97240.13
2023-05-19T05:21:12.373Z,97242.50
2023-05-19T05:23:40.513Z,97237.47
2023-05-19T05:26:17.443Z,97244.38
2023-05-19T05:28:46.020Z,97241.72
2023-05-19T05:31:13.038Z,97248.28
2023-05-19T05:33:41.424Z,97246.78
2023-05-19T05:36:09.051Z,97243.63
2023-05-19T05:38:37.111Z,97246.47
2023-05-19T05:41:04.294Z,97242.13
2023-05-19T05:43:32.780Z,97237.75
2023-05-19T05:46:02.975Z,97248.88
2023-05-19T05:48:30.417Z,97249.75
2023-05-19T05:50:59.572Z,97251.13
2023-05-19T05:53:32.237Z,97248.75
2023-05-19T05:56:01.224Z,97255.34
2023-05-19T05:58:37.822Z,97248.44
2023-05-19T06:01:05.483Z,97250.44
2023-05-19T06:03:33.545Z,97247.91
2023-05-19T06:06:06.239Z,97245.56
2023-05-19T06:08:34.869Z,97242.34
2023-05-19T06:11:06.316Z,97249.78
2023-05-19T06:13:33.637Z,97249.06
2023-05-19T06:16:01.984Z,97251.09
2023-05-19T06:18:38.324Z,97251.44
2023-05-19T06:21:05.254Z,97252.59
2023-05-19T06:23:32.436Z,97247.53
2023-05-19T06:26:00.151Z,97243.31
2023-05-19T06:28:27.493Z,97244.47
2023-05-19T06:30:55.940Z,97240.41
2023-05-19T06:33:32.516Z,97249.53
2023-05-19T06:35:59.962Z,97245.47
2023-05-19T06:38:26.956Z,97242.06
2023-05-19T06:40:53.945Z,97243.41
2023-05-19T06:43:21.275Z,97242.03
2023-05-19T06:45:56.186Z,97252.16
2023-05-19T06:48:25.154Z,97241.84
2023-05-19T06:50:52.567Z,97243.00
2023-05-19T06:53:21.305Z,97242.97
2023-05-19T06:55:59.479Z,97244.78
2023-05-19T06:58:28.135Z,97242.03
2023-05-19T07:00:56.023Z,97251.97
2023-05-19T07:03:27.922Z,97248.38
2023-05-19T07:05:55.857Z,97239.53
2023-05-19T07:08:23.222Z,97247.41
2023-05-19T07:10:50.130Z,97235.72
2023-05-19T07:13:17.540Z,97249.19
2023-05-19T07:15:45.025Z,97249.97
2023-05-19T07:18:12.104Z,97245.19
2023-05-19T07:20:39.013Z,97243.41
2023-05-19T07:23:05.975Z,97235.06
2023-05-19T07:25:33.312Z,97235.47
2023-05-19T07:28:00.709Z,97240.25
2023-05-19T07:30:28.788Z,97241.50
2023-05-19T07:32:56.168Z,97234.59
2023-05-19T07:35:23.218Z,97228.72
2023-05-19T07:37:51.786Z,97228.47
2023-05-19T07:40:18.944Z,97241.53
2023-05-19T07:42:45.808Z,97235.84
2023-05-19T07:45:13.014Z,97228.06
2023-05-19T07:47:39.980Z,97232.34
2023-05-19T07:50:07.723Z,97229.31
2023-05-19T07:52:34.617Z,97230.06
2023-05-19T07:55:01.450Z,97226.38
2023-05-19T07:57:28.429Z,97231.94
2023-05-19T07:59:55.639Z,97226.09
2023-05-19T08:02:23.236Z,97229.66
2023-05-19T08:04:50.442Z,97222.56
2023-05-19T08:07:17.580Z,97227.34
2023-05-19T08:09:44.445Z,97224.63
2023-05-19T08:12:17.657Z,97226.50
2023-05-19T08:14:44.620Z,97212.38
2023-05-19T08:17:12.846Z,97214.03
2023-05-19T08:19:39.711Z,97214.50
2023-05-19T08:22:06.756Z,97205.53
2023-05-19T08:24:36.529Z,97213.22
2023-05-19T08:27:04.824Z,97218.44
2023-05-19T08:29:31.915Z,97203.81
2023-05-19T08:31:58.899Z,97210.13
2023-05-19T08:34:25.854Z,97201.97
2023-05-19T08:36:53.423Z,97204.88
2023-05-19T08:39:25.140Z,97201.31
2023-05-19T08:41:53.654Z,97198.81
2023-05-19T08:44:20.997Z,97201.91
2023-05-19T08:46:48.258Z,97203.94
2023-05-19T08:49:20.053Z,97207.41
2023-05-19T08:52:13.807Z,97200.91
2023-05-19T08:54:55.913Z,97202.78
2023-05-19T08:57:24.645Z,97208.63
2023-05-19T08:59:53.366Z,97202.19
2023-05-19T09:02:21.735Z,97203.47
2023-05-19T09:04:49.492Z,97204.81
2023-05-19T09:07:16.877Z,97204.41
2023-05-19T09:09:44.024Z,97197.56
2023-05-19T09:12:11.975Z,97199.91
2023-05-19T09:14:39.915Z,97196.44
2023-05-19T09:17:07.059Z,97200.59
2023-05-19T09:19:34.447Z,97190.41
2023-05-19T09:22:05.467Z,97200.44
2023-05-19T09:24:34.326Z,97196.00
2023-05-19T09:27:02.094Z,97194.13
2023-05-19T09:29:29.222Z,97192.91
2023-05-19T09:32:01.600Z,97194.81
2023-05-19T09:34:28.659Z,97188.34
2023-05-19T09:36:55.870Z,97191.72
2023-05-19T09:39:23.993Z,97181.88
2023-05-19T09:41:55.388Z,97185.63
2023-05-19T09:44:30.300Z,97182.72
2023-05-19T09:46:58.587Z,97183.81
2023-05-19T09:49:30.455Z,97190.09
2023-05-19T09:52:04.813Z,97182.38
2023-05-19T09:54:34.238Z,97187.84
2023-05-19T09:57:03.814Z,97180.38
2023-05-19T09:59:33.722Z,97188.13
2023-05-19T10:02:02.435Z,97185.00
2023-05-19T10:04:30.972Z,97177.72
2023-05-19T10:06:59.570Z,97184.84
2023-05-19T10:09:28.689Z,97181.91
2023-05-19T10:12:00.890Z,97188.16
2023-05-19T10:14:30.072Z,97180.88
2023-05-19T10:16:59.098Z,97184.88
2023-05-19T10:19:29.341Z,97181.75
2023-05-19T10:21:57.691Z,97182.00
2023-05-19T10:24:25.244Z,97174.13
2023-05-19T10:27:01.667Z,97182.06
2023-05-19T10:29:40.253Z,97180.63
2023-05-19T10:32:31.097Z,97184.63
2023-05-19T10:35:16.822Z,97175.72
2023-05-19T10:38:13.708Z,97178.69
2023-05-19T10:42:05.208Z,97167.41
2023-05-19T10:44:53.754Z,97168.28
2023-05-19T10:47:25.802Z,97168.53
2023-05-19T10:49:54.242Z,97167.94
2023-05-19T10:52:29.767Z,97175.91
2023-05-19T10:54:58.334Z,97178.22
2023-05-19T10:57:31.763Z,97184.66
2023-05-19T11:00:01.098Z,97188.88
2023-05-19T11:02:42.965Z,97181.72
2023-05-19T11:05:18.547Z,97185.88
2023-05-19T11:08:06.247Z,97178.31
2023-05-19T11:10:33.691Z,97174.19
2023-05-19T11:13:01.096Z,97177.94
2023-05-19T11:15:28.848Z,97181.66
2023-05-19T11:17:56.183Z,97185.44
2023-05-19T11:20:34.752Z,97179.56
2023-05-19T11:23:08.473Z,97177.69
2023-05-19T11:25:47.719Z,97173.72
2023-05-19T11:28:19.651Z,97173.72
2023-05-19T11:30:52.155Z,97168.47
2023-05-19T11:33:21.620Z,97174.09
2023-05-19T11:35:50.318Z,97170.09
2023-05-19T11:38:19.146Z,97166.25
2023-05-19T11:40:47.172Z,97169.84
2023-05-19T11:43:14.147Z,97171.91
2023-05-19T11:45:41.419Z,97172.94
2023-05-19T11:48:18.853Z,97159.97
2023-05-19T11:50:46.830Z,97150.56
2023-05-19T11:53:15.472Z,97152.66
2023-05-19T11:55:46.046Z,97155.53
2023-05-19T11:58:13.331Z,97158.09
2023-05-19T12:00:42.770Z,97159.97
2023-05-19T12:03:10.075Z,97166.22
2023-05-19T12:05:43.898Z,97168.28
2023-05-19T12:08:12.368Z,97165.56
2023-05-19T12:10:40.697Z,97166.81
2023-05-19T12:13:11.493Z,97165.13
2023-05-19T12:15:39.299Z,97165.78
2023-05-19T12:18:14.479Z,97167.66
2023-05-19T12:20:41.740Z,97169.72
2023-05-19T12:23:09.215Z,97169.09
2023-05-19T12:25:36.911Z,97173.69
2023-05-19T12:28:04.759Z,97172.84
2023-05-19T12:30:33.567Z,97171.81
2023-05-19T12:33:02.149Z,97173.09
2023-05-19T12:35:33.649Z,97174.75
2023-05-19T12:38:07.239Z,97172.88
2023-05-19T12:40:36.501Z,97172.28
2023-05-19T12:43:04.557Z,97173.78
2023-05-19T12:45:38.685Z,97169.56
2023-05-19T12:48:11.431Z,97166.84
2023-05-19T12:50:38.724Z,97181.72
2023-05-19T12:53:10.517Z,97170.41
2023-05-19T12:55:43.234Z,97169.56
2023-05-19T12:58:13.450Z,97167.69
2023-05-19T13:00:44.038Z,97162.91
2023-05-19T13:03:21.137Z,97163.97
2023-05-19T13:05:50.851Z,97163.75
2023-05-19T13:08:24.679Z,97169.19
2023-05-19T13:10:51.856Z,97174.41
2023-05-19T13:13:19.346Z,97166.25
2023-05-19T13:15:49.212Z,97170.66
2023-05-19T13:18:17.177Z,97164.94
2023-05-19T13:20:46.404Z,97173.97
2023-05-19T13:23:14.724Z,97169.78
2023-05-19T13:25:43.742Z,97158.09
2023-05-19T13:28:11.416Z,97153.69
2023-05-19T13:30:40.576Z,97162.41
2023-05-19T13:33:08.215Z,97157.84
2023-05-19T13:35:38.385Z,97157.19
2023-05-19T13:38:07.818Z,97152.97
2023-05-19T13:40:35.221Z,97157.56
2023-05-19T13:43:03.813Z,97151.53
2023-05-19T13:45:30.983Z,97158.63
2023-05-19T13:47:58.471Z,97149.44
2023-05-19T13:50:26.652Z,97147.56
2023-05-19T13:52:54.025Z,97150.91
2023-05-19T13:55:21.510Z,97139.03
2023-05-19T13:57:49.168Z,97143.41
2023-05-19T14:00:18.160Z,97141.34
2023-05-19T14:02:45.285Z,97146.19
2023-05-19T14:05:12.409Z,97138.69
2023-05-19T14:07:39.526Z,97137.44
2023-05-19T14:10:07.307Z,97132.84
2023-05-19T14:12:49.442Z,97132.44
2023-05-19T14:15:23.606Z,97128.53
2023-05-19T14:17:50.614Z,97133.75
2023-05-19T14:20:17.642Z,97133.34
2023-05-19T14:22:44.553Z,97132.97
2023-05-19T14:25:11.540Z,97127.31
2023-05-19T14:27:39.916Z,97117.09
2023-05-19T14:30:08.116Z,97121.50
2023-05-19T14:32:35.224Z,97131.31
2023-05-19T14:35:02.370Z,97123.34
2023-05-19T14:37:29.302Z,97124.22
2023-05-19T14:39:57.496Z,97126.72
2023-05-19T14:42:25.120Z,97126.94
2023-05-19T14:44:52.119Z,97131.94
2023-05-19T14:47:19.016Z,97126.88
2023-05-19T14:49:46.067Z,97125.41
2023-05-19T14:52:13.076Z,97130.00
2023-05-19T14:54:40.029Z,97124.78
2023-05-19T14:57:08.231Z,97129.38
2023-05-19T14:59:38.622Z,97125.34
2023-05-19T15:02:06.005Z,97130.56
2023-05-19T15:04:34.274Z,97133.66
2023-05-19T15:09:31.320Z,97128.66
2023-05-19T15:12:00.950Z,97115.25
2023-05-19T15:14:29.406Z,97117.97
2023-05-19T15:16:57.863Z,97116.97
2023-05-19T15:19:25.158Z,97115.47
2023-05-19T15:21:52.241Z,97116.69
2023-05-19T15:24:19.345Z,97114.41
2023-05-19T15:26:47.382Z,97111.41
2023-05-19T15:29:14.426Z,97111.19
2023-05-19T15:31:41.814Z,97108.88
2023-05-19T15:34:08.971Z,97108.03
2023-05-19T15:36:35.968Z,97109.06
2023-05-19T15:39:03.834Z,97101.75
2023-05-19T15:41:30.902Z,97102.59
2023-05-19T15:44:00.310Z,97103.66
2023-05-19T15:46:27.803Z,97104.69
2023-05-19T15:48:59.724Z,97097.38
2023-05-19T15:51:27.433Z,97101.97
2023-05-19T15:53:54.399Z,97103.44
2023-05-19T15:56:22.785Z,97099.72
2023-05-19T15:58:49.827Z,97098.66
2023-05-19T16:01:17.910Z,97095.94
2023-05-19T16:03:48.134Z,97098.44
2023-05-19T16:06:15.194Z,97095.13
2023-05-19T16:08:42.176Z,97087.44
2023-05-19T16:11:09.185Z,97085.16
2023-05-19T16:13:36.121Z,97078.28
2023-05-19T16:16:03.346Z,97071.44
2023-05-19T16:18:30.448Z,97066.44
2023-05-19T16:20:57.511Z,97071.28
2023-05-19T16:23:24.758Z,97067.97
2023-05-19T16:25:52.504Z,97063.81
2023-05-19T16:28:19.565Z,97060.69
2023-05-19T16:30:46.750Z,97062.38
2023-05-19T16:33:14.215Z,97058.19
2023-05-19T16:35:41.347Z,97054.25
2023-05-19T16:38:08.623Z,97051.75
2023-05-19T16:41:16.977Z,97057.59
2023-05-19T16:43:49.865Z,97050.94
2023-05-19T16:46:16.869Z,97060.34
2023-05-19T16:48:43.892Z,97052.63
2023-05-19T16:51:10.802Z,97048.91
2023-05-19T16:53:37.764Z,97051.41
2023-05-19T16:56:05.235Z,97055.78
2023-05-19T16:58:32.303Z,97051.19
2023-05-19T17:00:59.297Z,97054.72
2023-05-19T17:03:26.475Z,97050.13
2023-05-19T17:05:53.706Z,97050.13
2023-05-19T17:08:20.556Z,97051.84
2023-05-19T17:10:47.981Z,97054.53
2023-05-19T17:13:14.932Z,97060.81
2023-05-19T17:15:43.387Z,97058.09
2023-05-19T17:18:12.818Z,97052.84
2023-05-19T17:20:39.728Z,97044.69
2023-05-19T17:23:09.079Z,97047.63
2023-05-19T17:25:36.358Z,97043.03
2023-05-19T17:28:03.616Z,97042.19
2023-05-19T17:30:31.018Z,97037.59
2023-05-19T17:33:00.778Z,97041.97
2023-05-19T17:35:28.521Z,97039.47
2023-05-19T17:37:56.185Z,97034.03
2023-05-19T17:40:23.159Z,97044.91
2023-05-19T17:42:50.096Z,97041.34
2023-05-19T17:45:17.696Z,97050.13
2023-05-19T17:47:44.702Z,97040.34
2023-05-19T17:50:11.937Z,97045.19
2023-05-19T17:52:40.482Z,97037.66
2023-05-19T17:55:08.935Z,97030.81
2023-05-19T17:57:37.118Z,97032.50
2023-05-19T18:00:05.690Z,97028.09
2023-05-19T18:02:33.226Z,97032.50
2023-05-19T18:05:01.167Z,97036.47
2023-05-19T18:07:29.411Z,97025.59
2023-05-19T18:09:56.837Z,97032.94
2023-05-19T18:12:24.137Z,97040.88
2023-05-19T18:14:51.294Z,97026.84
2023-05-19T18:17:18.380Z,97032.06
2023-05-19T18:19:45.412Z,97021.00
2023-05-19T18:22:14.830Z,97019.88
2023-05-19T18:24:41.823Z,97024.47
2023-05-19T18:27:08.857Z,97016.94
2023-05-19T18:29:35.854Z,97028.41
2023-05-19T18:32:03.144Z,97026.72
2023-05-19T18:34:31.398Z,97025.00
2023-05-19T18:36:58.455Z,97027.88
2023-05-19T18:39:27.153Z,97030.91
2023-05-19T18:41:56.781Z,97025.59
2023-05-19T18:44:23.760Z,97019.44
2023-05-19T18:46:50.735Z,97022.94
2023-05-19T18:49:17.752Z,97019.31
2023-05-19T18:51:44.719Z,97018.16
2023-05-19T18:54:12.771Z,97015.34
2023-05-19T18:56:39.751Z,97012.09
2023-05-19T18:59:06.703Z,97014.34
2023-05-19T19:01:33.964Z,97016.94
2023-05-19T19:04:02.010Z,97012.22
2023-05-19T19:06:29.063Z,97003.78
2023-05-19T19:08:56.264Z,97003.81
2023-05-19T19:11:25.658Z,97013.31
2023-05-19T19:13:55.423Z,97011.25
2023-05-19T19:16:23.604Z,97013.47
2023-05-19T19:18:50.787Z,97010.09
2023-05-19T19:21:19.863Z,97024.09
2023-05-19T19:23:46.824Z,97022.88
2023-05-19T19:26:13.868Z,97027.75
2023-05-19T19:28:41.085Z,97029.03
2023-05-19T19:31:08.191Z,97034.72
2023-05-19T19:33:35.142Z,97034.16
2023-05-19T19:36:02.277Z,97043.53
2023-05-19T19:38:29.599Z,97043.97
2023-05-19T19:40:56.952Z,97045.91
2023-05-19T19:43:23.957Z,97037.88
2023-05-19T19:46:02.710Z,97039.31
2023-05-19T19:48:29.820Z,97028.69
2023-05-19T19:50:57.716Z,97027.38
2023-05-19T19:53:24.933Z,97030.44
2023-05-19T19:55:59.118Z,97031.53
2023-05-19T19:58:27.252Z,97028.16
2023-05-19T20:00:59.442Z,97025.53
2023-05-19T20:03:27.019Z,97027.75
2023-05-19T20:05:56.912Z,97029.28
2023-05-19T20:08:25.225Z,97029.66
2023-05-19T20:10:52.653Z,97024.63
2023-05-19T20:13:20.194Z,97030.53
2023-05-19T20:15:47.529Z,97030.19
2023-05-19T20:18:14.939Z,97028.22
2023-05-19T20:20:42.494Z,97032.28
2023-05-19T20:23:09.646Z,97026.25
2023-05-19T20:25:58.518Z,97024.72
2023-05-19T20:28:30.176Z,97027.25
2023-05-19T20:30:57.256Z,97022.69
2023-05-19T20:33:24.233Z,97031.47
2023-05-19T20:35:51.507Z,97027.09
2023-05-19T20:38:18.516Z,97027.72
2023-05-19T20:40:45.949Z,97031.09
2023-05-19T20:43:12.977Z,97023.84
2023-05-19T20:45:43.190Z,97017.44
2023-05-19T20:48:11.341Z,97017.06
2023-05-19T20:50:40.004Z,97017.06
2023-05-19T20:53:07.562Z,97011.50
2023-05-19T20:55:36.335Z,97012.16
2023-05-19T20:58:03.648Z,97012.81
2023-05-19T21:00:30.970Z,97012.63
2023-05-19T21:02:58.198Z,97014.16
2023-05-19T21:05:25.513Z,97013.97
2023-05-19T21:07:52.550Z,97006.56
2023-05-19T21:10:19.539Z,97010.94
2023-05-19T21:12:46.725Z,97008.22
2023-05-19T21:15:14.180Z,97000.81
2023-05-19T21:17:41.191Z,96997.09
2023-05-19T21:20:09.242Z,96995.41
2023-05-19T21:22:36.430Z,96992.72
2023-05-19T21:25:04.000Z,96988.50
2023-05-19T21:27:32.903Z,96989.03
2023-05-19T21:30:00.516Z,96999.31
2023-05-19T21:32:29.536Z,96996.97
2023-05-19T21:34:56.875Z,96997.50
2023-05-19T21:37:23.866Z,96997.00
2023-05-19T21:39:51.596Z,96992.16
2023-05-19T21:42:18.705Z,96991.66
2023-05-19T21:44:45.788Z,96981.25
2023-05-19T21:47:12.895Z,96986.66
2023-05-19T21:49:40.828Z,96977.88
2023-05-19T21:52:08.067Z,96971.84
2023-05-19T21:54:36.232Z,96974.69
2023-05-19T21:57:03.461Z,96973.84
2023-05-19T21:59:30.556Z,96965.28
2023-05-19T22:01:58.383Z,96972.53
2023-05-19T22:04:25.831Z,96971.69
2023-05-19T22:06:52.925Z,96969.84
2023-05-19T22:09:19.932Z,96971.69
2023-05-19T22:11:46.981Z,96975.22
2023-05-19T22:14:14.613Z,96974.19
2023-05-19T22:16:41.675Z,96966.97
2023-05-19T22:19:09.013Z,96962.56
2023-05-19T22:21:36.572Z,96965.28
2023-05-19T22:24:04.054Z,96961.72
2023-05-19T22:26:31.113Z,96959.03
2023-05-19T22:28:58.085Z,96961.72
2023-05-19T22:31:25.060Z,96958.19
2023-05-19T22:33:52.039Z,96951.13
2023-05-19T22:36:19.322Z,96951.47
2023-05-19T22:38:46.356Z,96951.81
2023-05-19T22:41:13.484Z,96954.06
2023-05-19T22:43:48.389Z,96945.63
2023-05-19T22:46:15.458Z,96953.44
2023-05-19T22:48:42.544Z,96947.72
2023-05-19T22:51:09.691Z,96947.25
2023-05-19T22:53:36.814Z,96947.28
2023-05-19T22:56:03.974Z,96951.34
2023-05-19T22:58:33.237Z,96946.28
2023-05-19T23:01:00.259Z,96954.75
2023-05-19T23:03:27.330Z,96948.69
2023-05-19T23:05:54.342Z,96947.16
2023-05-19T23:08:21.452Z,96952.09
2023-05-19T23:10:48.670Z,96942.66
2023-05-19T23:13:16.218Z,96946.72
2023-05-19T23:15:43.270Z,96951.44
2023-05-19T23:18:14.955Z,96940.16
2023-05-19T23:20:41.982Z,96941.88
2023-05-19T23:23:09.039Z,96941.88
2023-05-19T23:25:36.439Z,96942.69
2023-05-19T23:28:03.616Z,96934.78
2023-05-19T23:30:31.477Z,96932.25
2023-05-19T23:32:58.745Z,96931.41
2023-05-19T23:35:25.941Z,96926.88
2023-05-19T23:37:53.418Z,96923.34
2023-05-19T23:40:20.590Z,96931.41
2023-05-19T23:42:47.666Z,96927.03
2023-05-19T23:45:14.686Z,96936.94
2023-05-19T23:47:41.749Z,96925.31
2023-05-19T23:50:09.467Z,96915.38
2023-05-19T23:52:36.455Z,96918.94
2023-05-19T23:55:03.695Z,96916.25
2023-05-19T23:57:30.746Z,96926.16
2023-05-19T23:59:57.636Z,96919.94
